createdAt,value
2018-02-07T00:01:00.733Z,13.70
2018-02-07T00:03:29.608Z,15.88
2018-02-07T00:05:58.513Z,14.60
2018-02-07T00:08:27.402Z,14.80
2018-02-07T00:10:56.272Z,13.70
2018-02-07T00:13:25.172Z,15.00
2018-02-07T00:15:54.047Z,14.80
2018-02-07T00:18:22.956Z,15.65
2018-02-07T00:20:51.874Z,15.65
2018-02-07T00:23:20.773Z,15.02
2018-02-07T00:25:49.661Z,13.40
2018-02-07T00:28:18.720Z,15.73
2018-02-07T00:30:47.653Z,13.62
2018-02-07T00:33:16.547Z,13.25
2018-02-07T00:35:45.466Z,13.82
2018-02-07T00:38:14.343Z,14.98
2018-02-07T00:40:43.524Z,12.48
2018-02-07T00:43:12.431Z,14.52
2018-02-07T00:45:41.310Z,15.38
2018-02-07T00:48:10.196Z,13.30
2018-02-07T00:50:39.101Z,14.23
2018-02-07T00:53:07.985Z,15.70
2018-02-07T00:55:36.870Z,12.90
2018-02-07T00:58:05.776Z,13.90
2018-02-07T01:00:35.478Z,14.55
2018-02-07T01:03:04.347Z,14.87
2018-02-07T01:05:34.249Z,13.50
2018-02-07T01:08:03.380Z,14.23
2018-02-07T01:10:32.253Z,15.00
2018-02-07T01:13:01.157Z,15.27
2018-02-07T01:15:30.059Z,15.02
2018-02-07T01:17:58.928Z,14.80
2018-02-07T01:20:27.827Z,15.75
2018-02-07T01:22:56.701Z,13.65
2018-02-07T01:25:25.575Z,15.15
2018-02-07T01:27:54.494Z,13.00
2018-02-07T01:30:24.429Z,15.73
2018-02-07T01:32:53.592Z,14.20
2018-02-07T01:35:22.546Z,12.30
2018-02-07T01:37:51.429Z,13.95
2018-02-07T01:40:20.311Z,13.70
2018-02-07T01:42:49.890Z,13.75
2018-02-07T01:45:18.780Z,14.82
2018-02-07T01:47:47.655Z,13.15
2018-02-07T01:50:16.552Z,14.15
2018-02-07T01:52:45.428Z,12.77
2018-02-07T01:55:14.305Z,14.15
2018-02-07T01:57:43.425Z,14.15
2018-02-07T02:00:17.371Z,13.32
2018-02-07T02:02:46.281Z,13.23
2018-02-07T02:05:15.158Z,14.02
2018-02-07T02:07:45.073Z,13.05
2018-02-07T02:10:13.993Z,14.02
2018-02-07T02:12:42.873Z,13.70
2018-02-07T02:15:11.773Z,14.27
2018-02-07T02:17:40.696Z,14.57
2018-02-07T02:20:09.924Z,16.73
2018-02-07T02:22:38.823Z,11.65
2018-02-07T02:25:07.729Z,13.23
2018-02-07T02:27:36.633Z,13.57
2018-02-07T02:30:05.514Z,13.50
2018-02-07T02:32:34.430Z,14.32
2018-02-07T02:35:03.397Z,12.60
2018-02-07T02:37:32.275Z,14.45
2018-02-07T02:40:01.201Z,14.63
2018-02-07T02:42:30.078Z,14.87
2018-02-07T02:44:59.138Z,13.57
2018-02-07T02:47:28.038Z,12.65
2018-02-07T02:49:58.229Z,13.95
2018-02-07T02:52:27.157Z,13.27
2018-02-07T02:54:56.085Z,13.85
2018-02-07T02:57:25.137Z,15.00
2018-02-07T02:59:54.010Z,12.57
2018-02-07T03:02:22.914Z,14.32
2018-02-07T03:04:52.564Z,13.40
2018-02-07T03:07:21.448Z,12.90
2018-02-07T03:09:50.360Z,14.45
2018-02-07T03:12:19.254Z,12.60
2018-02-07T03:14:48.158Z,14.15
2018-02-07T03:17:17.073Z,14.32
2018-02-07T03:19:45.948Z,13.20
2018-02-07T03:22:14.834Z,12.23
2018-02-07T03:24:43.770Z,11.88
2018-02-07T03:27:12.649Z,13.25
2018-02-07T03:29:41.561Z,16.12
2018-02-07T03:32:10.481Z,13.18
2018-02-07T03:34:39.378Z,12.73
2018-02-07T03:37:08.545Z,14.93
2018-02-07T03:39:37.469Z,12.80
2018-02-07T03:42:07.228Z,12.60
2018-02-07T03:44:36.138Z,15.05
2018-02-07T03:47:05.201Z,15.02
2018-02-07T03:49:34.084Z,15.40
2018-02-07T03:52:02.952Z,13.38
2018-02-07T03:54:31.860Z,12.95
2018-02-07T03:57:01.517Z,12.40
2018-02-07T03:59:30.387Z,14.13
2018-02-07T04:01:59.287Z,13.32
2018-02-07T04:04:28.175Z,13.40
2018-02-07T04:06:57.065Z,14.60
2018-02-07T04:09:25.988Z,13.73
2018-02-07T04:11:55.160Z,13.75
2018-02-07T04:14:24.045Z,13.10
2018-02-07T04:16:52.952Z,14.10
2018-02-07T04:19:21.824Z,14.75
2018-02-07T04:21:50.713Z,14.35
2018-02-07T04:24:19.605Z,13.57
2018-02-07T04:26:48.504Z,14.55
2018-02-07T04:29:17.376Z,14.55
2018-02-07T04:31:46.317Z,13.13
2018-02-07T04:34:15.184Z,13.93
2018-02-07T04:36:44.295Z,13.70
2018-02-07T04:39:14.077Z,14.52
2018-02-07T04:41:42.963Z,16.15
2018-02-07T04:44:11.849Z,13.35
2018-02-07T04:46:40.778Z,15.07
2018-02-07T04:49:09.775Z,12.50
2018-02-07T04:51:38.669Z,13.75
2018-02-07T04:54:07.591Z,12.45
2018-02-07T04:56:36.484Z,14.10
2018-02-07T04:59:06.076Z,13.95
2018-02-07T05:01:35.438Z,13.70
2018-02-07T05:04:04.321Z,15.52
2018-02-07T05:06:33.192Z,13.68
2018-02-07T05:09:02.105Z,14.30
2018-02-07T05:11:31.041Z,15.50
2018-02-07T05:13:59.912Z,14.57
2018-02-07T05:16:28.807Z,14.27
2018-02-07T05:18:57.708Z,14.10
2018-02-07T05:21:26.580Z,15.15
2018-02-07T05:23:55.497Z,15.57
2018-02-07T05:26:24.369Z,14.75
2018-02-07T05:28:53.266Z,15.50
2018-02-07T05:31:22.175Z,15.07
2018-02-07T05:33:51.101Z,13.65
2018-02-07T05:36:20.993Z,18.02
2018-02-07T05:38:49.891Z,15.43
2018-02-07T05:41:18.952Z,16.20
2018-02-07T05:43:47.824Z,14.63
2018-02-07T05:46:16.735Z,14.48
2018-02-07T05:48:45.622Z,16.73
2018-02-07T05:51:14.987Z,15.52
2018-02-07T05:53:43.886Z,16.42
2018-02-07T05:56:12.761Z,15.60
2018-02-07T05:58:41.646Z,12.13
2018-02-07T06:01:10.658Z,15.65
2018-02-07T06:03:39.694Z,16.00
2018-02-07T06:06:08.622Z,13.38
2018-02-07T06:08:37.511Z,13.23
2018-02-07T06:11:06.394Z,13.45
2018-02-07T06:13:35.273Z,17.20
2018-02-07T06:16:04.299Z,15.75
2018-02-07T06:18:33.243Z,15.65
2018-02-07T06:21:02.116Z,15.88
2018-02-07T06:23:31.021Z,14.57
2018-02-07T06:25:59.903Z,13.82
2018-02-07T06:28:28.992Z,14.60
2018-02-07T06:30:57.887Z,16.23
2018-02-07T06:33:27.440Z,15.63
2018-02-07T06:35:56.317Z,15.88
2018-02-07T06:38:25.409Z,14.98
2018-02-07T06:40:54.492Z,14.27
2018-02-07T06:43:23.379Z,15.70
2018-02-07T06:45:52.280Z,16.40
2018-02-07T06:48:21.792Z,14.55
2018-02-07T06:50:50.672Z,16.33
2018-02-07T06:53:19.574Z,15.73
2018-02-07T06:55:48.487Z,14.35
2018-02-07T06:58:17.356Z,16.12
2018-02-07T07:00:46.256Z,15.02
2018-02-07T07:03:15.127Z,17.85
2018-02-07T07:05:44.233Z,16.73
2018-02-07T07:08:13.151Z,14.02
2018-02-07T07:10:42.023Z,16.37
2018-02-07T07:13:10.905Z,16.00
2018-02-07T07:15:39.832Z,15.07
2018-02-07T07:18:08.710Z,16.80
2018-02-07T07:20:37.602Z,16.15
2018-02-07T07:23:06.504Z,15.38
2018-02-07T07:25:35.386Z,16.17
2018-02-07T07:28:04.272Z,15.70
2018-02-07T07:30:34.235Z,16.33
2018-02-07T07:33:03.139Z,15.68
2018-02-07T07:35:32.020Z,15.77
2018-02-07T07:38:00.924Z,15.20
2018-02-07T07:40:29.796Z,16.52
2018-02-07T07:42:58.674Z,16.58
2018-02-07T07:45:28.973Z,13.52
2018-02-07T07:47:57.853Z,15.38
2018-02-07T07:50:26.729Z,14.90
2018-02-07T07:52:56.133Z,15.02
2018-02-07T07:55:25.133Z,17.37
2018-02-07T07:57:54.008Z,15.63
2018-02-07T08:00:22.927Z,15.90
2018-02-07T08:02:51.810Z,16.98
2018-02-07T08:05:20.706Z,14.60
2018-02-07T08:07:49.648Z,14.77
2018-02-07T08:10:18.613Z,15.93
2018-02-07T08:12:47.499Z,15.18
2018-02-07T08:15:16.503Z,15.77
2018-02-07T08:17:45.386Z,16.50
2018-02-07T08:20:14.304Z,17.60
2018-02-07T08:22:43.221Z,16.30
2018-02-07T08:25:12.097Z,14.80
2018-02-07T08:27:41.769Z,14.97
2018-02-07T08:30:10.665Z,14.97
2018-02-07T08:32:39.539Z,15.37
2018-02-07T08:35:08.413Z,14.80
2018-02-07T08:37:37.366Z,15.07
2018-02-07T08:40:06.216Z,16.23
2018-02-07T08:42:36.071Z,14.87
2018-02-07T08:45:05.148Z,14.77
2018-02-07T08:47:35.058Z,17.60
2018-02-07T08:50:03.946Z,15.75
2018-02-07T08:52:32.942Z,16.43
2018-02-07T08:55:01.841Z,16.95
2018-02-07T08:57:30.720Z,15.07
2018-02-07T08:59:59.614Z,15.23
2018-02-07T09:02:28.508Z,15.17
2018-02-07T09:04:57.408Z,14.60
2018-02-07T09:07:26.315Z,16.20
2018-02-07T09:09:55.209Z,15.37
2018-02-07T09:12:24.472Z,17.10
2018-02-07T09:14:53.371Z,17.03
2018-02-07T09:17:22.235Z,17.67
2018-02-07T09:19:51.121Z,16.27
2018-02-07T09:22:20.028Z,16.77
2018-02-07T09:24:48.900Z,15.50
2018-02-07T09:27:17.776Z,16.90
2018-02-07T09:29:46.671Z,14.60
2018-02-07T09:32:15.628Z,16.80
2018-02-07T09:34:44.612Z,15.93
2018-02-07T09:37:13.803Z,17.23
2018-02-07T09:39:42.668Z,18.17
2018-02-07T09:42:11.544Z,14.93
2018-02-07T09:44:40.438Z,14.87
2018-02-07T09:47:09.316Z,15.20
2018-02-07T09:49:38.308Z,15.47
2018-02-07T09:52:07.211Z,16.77
2018-02-07T09:54:36.075Z,15.97
2018-02-07T09:57:04.953Z,15.83
2018-02-07T09:59:34.029Z,16.43
2018-02-07T10:02:02.893Z,14.83
2018-02-07T10:04:31.865Z,17.20
2018-02-07T10:07:00.948Z,15.60
2018-02-07T10:09:29.817Z,17.50
2018-02-07T10:11:58.680Z,16.27
2018-02-07T10:14:27.640Z,16.70
2018-02-07T10:16:56.524Z,16.30
2018-02-07T10:19:25.701Z,15.27
2018-02-07T10:21:54.673Z,15.63
2018-02-07T10:24:23.592Z,15.97
2018-02-07T10:26:52.453Z,16.57
2018-02-07T10:29:21.343Z,17.53
2018-02-07T10:31:50.250Z,15.67
2018-02-07T10:34:19.125Z,16.07
2018-02-07T10:36:48.029Z,16.23
2018-02-07T10:39:16.902Z,17.63
2018-02-07T10:41:45.780Z,15.73
2018-02-07T10:44:14.672Z,16.53
2018-02-07T10:46:43.554Z,15.63
2018-02-07T10:49:12.427Z,16.33
2018-02-07T10:51:41.540Z,15.33
2018-02-07T10:54:10.417Z,15.73
2018-02-07T10:56:39.320Z,17.23
2018-02-07T10:59:08.672Z,15.17
2018-02-07T11:01:37.817Z,16.67
2018-02-07T11:04:06.829Z,17.27
2018-02-07T11:06:34.580Z,16.17
2018-02-07T11:09:02.120Z,17.10
2018-02-07T11:11:30.419Z,16.30
2018-02-07T11:13:58.769Z,14.50
2018-02-07T11:16:26.292Z,19.23
2018-02-07T11:18:54.333Z,15.70
2018-02-07T11:21:21.908Z,16.27
2018-02-07T11:23:49.421Z,16.70
2018-02-07T11:26:17.322Z,18.63
2018-02-07T11:28:45.172Z,16.30
2018-02-07T11:31:12.699Z,16.57
2018-02-07T11:33:40.224Z,18.30
2018-02-07T11:36:07.821Z,18.00
2018-02-07T11:38:35.412Z,16.20
2018-02-07T11:41:05.441Z,17.17
2018-02-07T11:43:33.002Z,19.97
2018-02-07T11:46:00.534Z,15.77
2018-02-07T11:48:28.391Z,18.17
2018-02-07T11:50:56.005Z,15.60
2018-02-07T11:53:23.894Z,16.90
2018-02-07T11:55:51.458Z,18.40
2018-02-07T11:58:19.024Z,16.70
2018-02-07T12:00:46.541Z,16.07
2018-02-07T12:03:14.070Z,15.77
2018-02-07T12:05:41.630Z,16.77
2018-02-07T12:08:09.502Z,17.67
2018-02-07T12:10:37.805Z,16.47
2018-02-07T12:13:05.352Z,16.20
2018-02-07T12:15:33.792Z,17.30
2018-02-07T12:18:02.470Z,15.97
2018-02-07T12:20:30.034Z,18.10
2018-02-07T12:22:57.636Z,17.90
2018-02-07T12:25:26.246Z,15.93
2018-02-07T12:27:53.802Z,16.90
2018-02-07T12:30:21.357Z,18.63
2018-02-07T12:32:49.912Z,16.60
2018-02-07T12:35:17.456Z,18.10
2018-02-07T12:37:45.087Z,17.77
2018-02-07T12:40:12.690Z,18.37
2018-02-07T12:42:40.238Z,17.50
2018-02-07T12:45:07.788Z,17.17
2018-02-07T12:47:35.334Z,17.10
2018-02-07T12:50:02.899Z,18.07
2018-02-07T12:52:30.438Z,16.83
2018-02-07T12:54:58.964Z,16.07
2018-02-07T12:57:26.543Z,16.80
2018-02-07T12:59:54.875Z,18.27
2018-02-07T13:02:22.464Z,15.53
2018-02-07T13:04:50.164Z,18.10
2018-02-07T13:07:17.726Z,15.80
2018-02-07T13:09:45.269Z,19.07
2018-02-07T13:12:12.827Z,17.10
2018-02-07T13:14:40.375Z,15.80
2018-02-07T13:17:07.967Z,17.50
2018-02-07T13:19:35.526Z,17.33
2018-02-07T13:22:03.830Z,14.50
2018-02-07T13:24:31.349Z,16.67
2018-02-07T13:26:58.932Z,19.00
2018-02-07T13:29:27.519Z,18.23
2018-02-07T13:31:55.048Z,17.50
2018-02-07T13:34:22.597Z,15.80
2018-02-07T13:36:50.135Z,15.73
2018-02-07T13:39:17.663Z,14.93
2018-02-07T13:41:45.216Z,15.10
2018-02-07T13:44:12.733Z,15.33
2018-02-07T13:46:40.259Z,15.50
2018-02-07T13:49:07.813Z,15.80
2018-02-07T13:51:35.328Z,14.60
2018-02-07T13:54:02.938Z,16.60
2018-02-07T13:56:30.514Z,17.47
2018-02-07T13:58:58.057Z,16.20
2018-02-07T14:01:25.583Z,14.53
2018-02-07T14:03:53.904Z,17.27
2018-02-07T14:06:21.418Z,16.10
2018-02-07T14:08:49.695Z,16.63
2018-02-07T14:11:18.011Z,16.07
2018-02-07T14:13:45.539Z,15.93
2018-02-07T14:16:13.838Z,15.40
2018-02-07T14:18:41.678Z,15.13
2018-02-07T14:21:10.070Z,15.70
2018-02-07T14:23:37.622Z,15.83
2018-02-07T14:26:05.953Z,15.07
2018-02-07T14:28:33.490Z,15.60
2018-02-07T14:31:01.784Z,14.57
2018-02-07T14:33:29.434Z,16.00
2018-02-07T14:35:56.956Z,16.43
2018-02-07T14:38:25.242Z,15.70
2018-02-07T14:40:53.563Z,15.63
2018-02-07T14:43:22.510Z,17.17
2018-02-07T14:45:50.029Z,14.20
2018-02-07T14:48:17.573Z,16.77
2018-02-07T14:50:45.872Z,15.90
2018-02-07T14:53:13.388Z,17.50
2018-02-07T14:55:40.941Z,14.80
2018-02-07T14:58:08.686Z,15.40
2018-02-07T15:00:36.982Z,16.57
2018-02-07T15:03:04.570Z,13.93
2018-02-07T15:05:32.099Z,14.27
2018-02-07T15:07:59.851Z,14.83
2018-02-07T15:10:28.452Z,16.00
2018-02-07T15:12:56.023Z,14.60
2018-02-07T15:15:24.287Z,16.27
2018-02-07T15:17:51.839Z,14.13
2018-02-07T15:20:19.363Z,16.23
2018-02-07T15:22:46.962Z,15.27
2018-02-07T15:25:14.584Z,15.67
2018-02-07T15:27:42.101Z,14.57
2018-02-07T15:30:09.616Z,13.90
2018-02-07T15:32:37.448Z,14.20
2018-02-07T15:35:04.975Z,15.60
2018-02-07T15:37:33.375Z,16.00
2018-02-07T15:40:00.925Z,15.57
2018-02-07T15:42:28.443Z,14.40
2018-02-07T15:44:55.979Z,14.40
2018-02-07T15:47:24.105Z,16.90
2018-02-07T15:49:51.761Z,17.13
2018-02-07T15:52:20.443Z,14.70
2018-02-07T15:54:47.993Z,14.63
2018-02-07T15:57:16.273Z,14.63
2018-02-07T15:59:43.958Z,14.80
2018-02-07T16:02:12.565Z,16.67
2018-02-07T16:04:40.097Z,14.93
2018-02-07T16:07:07.624Z,14.63
2018-02-07T16:09:35.191Z,15.37
2018-02-07T16:12:03.347Z,16.80
2018-02-07T16:14:30.883Z,14.73
2018-02-07T16:16:58.436Z,16.67
2018-02-07T16:19:25.953Z,15.23
2018-02-07T16:21:54.267Z,16.30
2018-02-07T16:24:21.940Z,15.90
2018-02-07T16:26:49.459Z,17.00
2018-02-07T16:29:17.755Z,16.40
2018-02-07T16:31:46.206Z,18.03
2018-02-07T16:34:13.774Z,17.17
2018-02-07T16:36:42.953Z,20.70
2018-02-07T16:39:10.506Z,16.33
2018-02-07T16:41:38.036Z,19.10
2018-02-07T16:44:05.583Z,16.60
2018-02-07T16:46:33.337Z,18.43
2018-02-07T16:49:00.874Z,18.87
2018-02-07T16:51:29.162Z,18.57
2018-02-07T16:53:57.474Z,21.00
2018-02-07T16:56:25.006Z,19.43
2018-02-07T16:58:52.550Z,21.13
2018-02-07T17:01:21.004Z,20.37
2018-02-07T17:03:48.525Z,19.67
2018-02-07T17:06:16.052Z,19.00
2018-02-07T17:08:44.404Z,20.00
2018-02-07T17:11:11.941Z,20.87
2018-02-07T17:13:39.458Z,21.47
2018-02-07T17:16:07.771Z,20.30
2018-02-07T17:18:35.299Z,19.73
2018-02-07T17:21:02.831Z,21.67
2018-02-07T17:23:30.389Z,18.57
2018-02-07T17:25:57.905Z,19.40
2018-02-07T17:28:25.427Z,19.17
2018-02-07T17:30:53.762Z,20.17
2018-02-07T17:33:21.285Z,20.87
2018-02-07T17:35:48.817Z,20.40
2018-02-07T17:38:17.150Z,18.03
2018-02-07T17:40:44.690Z,22.60
2018-02-07T17:43:12.256Z,19.73
2018-02-07T17:45:39.802Z,21.70
2018-02-07T17:48:07.342Z,20.80
2018-02-07T17:50:34.897Z,20.13
2018-02-07T17:53:02.468Z,20.47
2018-02-07T17:55:29.997Z,23.13
2018-02-07T17:57:57.527Z,20.87
2018-02-07T18:00:26.261Z,21.90
2018-02-07T18:02:53.806Z,21.63
2018-02-07T18:05:21.352Z,22.63
2018-02-07T18:07:48.934Z,20.07
2018-02-07T18:10:16.556Z,22.00
2018-02-07T18:12:44.093Z,19.90
2018-02-07T18:15:12.411Z,19.00
2018-02-07T18:17:39.974Z,19.70
2018-02-07T18:20:07.520Z,20.40
2018-02-07T18:22:35.102Z,18.90
2018-02-07T18:25:02.925Z,19.43
2018-02-07T18:27:30.458Z,19.87
2018-02-07T18:29:59.236Z,20.50
2018-02-07T18:32:26.778Z,19.33
2018-02-07T18:34:54.306Z,17.97
2018-02-07T18:37:21.885Z,20.97
2018-02-07T18:39:49.406Z,21.60
2018-02-07T18:42:16.938Z,21.00
2018-02-07T18:44:44.589Z,19.37
2018-02-07T18:47:12.945Z,17.07
2018-02-07T18:49:41.735Z,19.40
2018-02-07T18:52:09.314Z,19.57
2018-02-07T18:54:36.940Z,19.00
2018-02-07T18:57:05.453Z,19.40
2018-02-07T18:59:33.790Z,19.87
2018-02-07T19:02:01.347Z,19.27
2018-02-07T19:04:29.006Z,20.93
2018-02-07T19:06:56.729Z,20.10
2018-02-07T19:09:24.256Z,20.07
2018-02-07T19:11:51.813Z,18.80
2018-02-07T19:14:20.163Z,18.63
2018-02-07T19:16:48.510Z,18.03
2018-02-07T19:19:16.040Z,19.73
2018-02-07T19:21:43.607Z,18.43
2018-02-07T19:24:11.151Z,19.60
2018-02-07T19:26:40.382Z,20.53
2018-02-07T19:29:07.978Z,18.60
2018-02-07T19:31:36.266Z,19.30
2018-02-07T19:34:03.795Z,19.80
2018-02-07T19:36:31.345Z,20.40
2018-02-07T19:38:58.913Z,20.67
2018-02-07T19:41:26.507Z,19.20
2018-02-07T19:43:54.633Z,18.93
2018-02-07T19:46:22.179Z,17.73
2018-02-07T19:48:49.709Z,20.23
2018-02-07T19:51:17.289Z,18.83
2018-02-07T19:53:44.831Z,20.10
2018-02-07T19:56:12.380Z,18.03
2018-02-07T19:58:39.932Z,21.77
2018-02-07T20:01:08.234Z,19.40
2018-02-07T20:03:36.038Z,20.30
2018-02-07T20:06:03.761Z,19.70
2018-02-07T20:08:31.342Z,18.70
2018-02-07T20:10:59.640Z,20.57
2018-02-07T20:13:27.221Z,21.47
2018-02-07T20:15:54.761Z,20.60
2018-02-07T20:18:22.309Z,19.53
2018-02-07T20:20:50.722Z,21.33
2018-02-07T20:23:18.380Z,20.67
2018-02-07T20:25:46.072Z,20.20
2018-02-07T20:28:13.862Z,20.50
2018-02-07T20:30:41.886Z,22.87
2018-02-07T20:33:09.811Z,22.57
2018-02-07T20:35:50.371Z,17.90
2018-02-07T20:38:18.467Z,20.17
2018-02-07T20:40:48.521Z,21.37
2018-02-07T20:43:16.344Z,19.83
2018-02-07T20:48:43.385Z,20.10
2018-02-07T20:51:12.055Z,22.10
2018-02-07T20:53:40.467Z,19.73
2018-02-07T20:56:10.108Z,21.30
2018-02-07T20:58:39.295Z,22.10
2018-02-07T21:01:08.672Z,19.70
2018-02-07T21:03:36.263Z,19.53
2018-02-07T21:06:04.109Z,23.13
2018-02-07T21:08:32.433Z,21.50
2018-02-07T21:10:59.977Z,19.70
2018-02-07T21:13:27.519Z,22.57
2018-02-07T21:15:55.060Z,22.07
2018-02-07T21:18:22.596Z,23.40
2018-02-07T21:20:50.156Z,22.47
2018-02-07T21:23:17.873Z,24.07
2018-02-07T21:25:46.666Z,22.37
2018-02-07T21:28:14.198Z,22.27
2018-02-07T21:30:41.819Z,22.73
2018-02-07T21:33:10.199Z,23.90
2018-02-07T21:35:38.496Z,23.10
2018-02-07T21:38:06.153Z,21.57
2018-02-07T21:40:33.718Z,23.40
2018-02-07T21:43:01.240Z,23.27
2018-02-07T21:45:28.898Z,23.13
2018-02-07T21:47:56.582Z,24.93
2018-02-07T21:50:25.098Z,24.10
2018-02-07T21:52:52.714Z,22.33
2018-02-07T21:55:20.354Z,23.10
2018-02-07T21:57:48.028Z,22.97
2018-02-07T22:00:15.627Z,22.70
2018-02-07T22:02:43.260Z,21.67
2018-02-07T22:05:10.869Z,24.27
2018-02-07T22:07:38.768Z,24.67
2018-02-07T22:10:06.448Z,22.93
2018-02-07T22:12:34.055Z,25.17
2018-02-07T22:15:01.770Z,23.80
2018-02-07T22:17:29.711Z,24.33
2018-02-07T22:19:57.233Z,23.33
2018-02-07T22:22:24.854Z,25.37
2018-02-07T22:24:52.472Z,22.50
2018-02-07T22:27:20.237Z,26.40
2018-02-07T22:29:47.823Z,24.03
2018-02-07T22:32:16.146Z,23.23
2018-02-07T22:34:44.528Z,24.10
2018-02-07T22:37:12.302Z,27.20
2018-02-07T22:39:40.273Z,26.70
2018-02-07T22:42:08.920Z,26.97
2018-02-07T22:44:36.500Z,26.67
2018-02-07T22:47:04.977Z,24.40
2018-02-07T22:49:32.498Z,25.30
2018-02-07T22:52:00.303Z,25.40
2018-02-07T22:54:28.388Z,24.00
2018-02-07T22:56:55.954Z,24.17
2018-02-07T22:59:24.497Z,24.33
2018-02-07T23:01:52.086Z,23.63
2018-02-07T23:04:19.609Z,24.17
2018-02-07T23:06:47.649Z,23.27
2018-02-07T23:09:15.461Z,24.00
2018-02-07T23:11:42.986Z,24.43
2018-02-07T23:14:10.582Z,25.13
2018-02-07T23:16:38.209Z,23.17
2018-02-07T23:19:05.789Z,24.10
2018-02-07T23:21:33.697Z,26.70
2018-02-07T23:24:01.354Z,25.67
2018-02-07T23:26:28.892Z,26.40
2018-02-07T23:28:56.484Z,25.20
2018-02-07T23:31:24.101Z,25.30
2018-02-07T23:33:51.635Z,27.47
2018-02-07T23:36:19.219Z,25.37
2018-02-07T23:38:46.778Z,24.13
2018-02-07T23:41:14.389Z,24.47
2018-02-07T23:43:41.913Z,27.00
2018-02-07T23:46:09.470Z,24.33
2018-02-07T23:48:37.012Z,24.00
2018-02-07T23:51:04.542Z,26.40
2018-02-07T23:53:32.970Z,24.87
2018-02-07T23:56:00.749Z,24.77
2018-02-07T23:58:28.292Z,24.10
